Time;durP1;ratioP1;P1;durP2;ratioP2;P2;SDS_P1;SDS_P2;PMS_P1;PMS_P2;Temp;Humidity;BMP_temperature;BMP_pressure;BME280_temperature;BME280_humidity;BME280_pressure;Samples;Min_cycle;Max_cycle;Signal;HPM_P1;HPM_P2
2023/05/06 00:00:22;;;;;;;0.50;0.50;;;;;;;;;;6340764;22;20509;-93
2023/05/06 00:03:27;;;;;;;0.50;0.50;;;;;;;;;;6357374;22;20167;-92
2023/05/06 00:06:33;;;;;;;0.40;0.40;;;;;;;;;;6338021;22;20180;-93
2023/05/06 00:09:38;;;;;;;0.30;0.30;;;;;;;;;;6337673;22;20244;-93
2023/05/06 00:12:46;;;;;;;0.68;0.68;;;;;;;;;;6356136;22;20176;-95
2023/05/06 00:16:11;;;;;;;0.40;0.40;;;;;;;;;;6356488;22;20186;-93
2023/05/06 00:19:16;;;;;;;1.08;0.98;;;;;;;;;;6337573;22;20612;-91
2023/05/06 00:22:22;;;;;;;0.30;0.30;;;;;;;;;;6355218;22;20180;-92
2023/05/06 00:25:27;;;;;;;0.98;0.70;;;;;;;;;;6355105;22;20243;-92
2023/05/06 00:28:34;;;;;;;0.47;0.47;;;;;;;;;;6338925;22;20217;-94
2023/05/06 00:31:40;;;;;;;9.68;1.10;;;;;;;;;;6354999;22;20165;-92
2023/05/06 00:34:45;;;;;;;0.63;0.50;;;;;;;;;;6356824;22;20176;-93
2023/05/06 00:37:56;;;;;;;0.40;0.40;;;;;;;;;;6356506;22;20246;-92
2023/05/06 00:41:02;;;;;;;0.68;0.68;;;;;;;;;;6357539;22;20263;-94
2023/05/06 00:48:24;;;;;;;0.63;0.55;;;;;;;;;;6358687;22;20179;-94
2023/05/06 00:51:33;;;;;;;0.30;0.30;;;;;;;;;;6340009;22;20604;-92
2023/05/06 00:54:39;;;;;;;1.20;0.50;;;;;;;;;;6340389;22;20188;-95
2023/05/06 00:57:45;;;;;;;0.57;0.57;;;;;;;;;;6357587;22;20180;-93
2023/05/06 01:00:51;;;;;;;0.40;0.40;;;;;;;;;;6356903;22;20215;-94
2023/05/06 01:03:57;;;;;;;0.73;0.73;;;;;;;;;;6358437;22;20172;-93
2023/05/06 01:07:11;;;;;;;0.40;0.40;;;;;;;;;;6359490;22;20164;-94
2023/05/06 01:10:20;;;;;;;0.32;0.32;;;;;;;;;;6340434;22;20147;-94
2023/05/06 01:13:30;;;;;;;0.57;0.57;;;;;;;;;;6358471;22;20255;-93
2023/05/06 01:16:40;;;;;;;0.60;0.60;;;;;;;;;;6357776;22;20252;-93
2023/05/06 01:20:10;;;;;;;0.45;0.45;;;;;;;;;;6338617;22;20152;-93
2023/05/06 01:23:18;;;;;;;0.32;0.32;;;;;;;;;;6337862;22;20164;-92
2023/05/06 01:26:24;;;;;;;0.40;0.40;;;;;;;;;;6355292;22;20221;-93
2023/05/06 01:29:31;;;;;;;4.20;0.73;;;;;;;;;;6356074;22;20176;-94
2023/05/06 01:32:42;;;;;;;0.40;0.40;;;;;;;;;;6339106;22;20317;-93
2023/05/06 01:36:03;;;;;;;0.35;0.35;;;;;;;;;;6357860;22;20500;-93
2023/05/06 01:39:13;;;;;;;0.70;0.70;;;;;;;;;;6357244;22;20187;-94
2023/05/06 01:42:25;;;;;;;0.40;0.40;;;;;;;;;;6356612;22;20167;-93
2023/05/06 01:46:00;;;;;;;0.30;0.30;;;;;;;;;;6357559;22;20156;-93
2023/05/06 01:49:06;;;;;;;0.50;0.50;;;;;;;;;;6357068;22;20164;-92
2023/05/06 01:52:12;;;;;;;0.75;0.75;;;;;;;;;;6355778;22;20168;-92
2023/05/06 01:55:20;;;;;;;0.50;0.50;;;;;;;;;;6336838;22;20243;-94
2023/05/06 01:58:25;;;;;;;0.30;0.30;;;;;;;;;;6354357;22;20219;-91
2023/05/06 02:01:30;;;;;;;0.40;0.40;;;;;;;;;;6354357;22;20164;-92
2023/05/06 02:04:35;;;;;;;0.30;0.30;;;;;;;;;;6354855;22;20172;-91
2023/05/06 02:07:40;;;;;;;0.30;0.30;;;;;;;;;;6335983;22;20219;-93
2023/05/06 02:10:48;;;;;;;0.65;0.55;;;;;;;;;;6337864;22;20179;-91
2023/05/06 02:13:53;;;;;;;0.40;0.40;;;;;;;;;;6337980;22;20192;-92
2023/05/06 02:17:10;;;;;;;0.40;0.40;;;;;;;;;;6357212;22;20152;-92
2023/05/06 02:20:15;;;;;;;0.50;0.50;;;;;;;;;;6340237;22;20169;-93
2023/05/06 02:23:21;;;;;;;0.40;0.40;;;;;;;;;;6338747;22;20164;-92
2023/05/06 02:26:28;;;;;;;0.30;0.30;;;;;;;;;;6356555;22;20204;-92
2023/05/06 02:29:33;;;;;;;0.30;0.30;;;;;;;;;;6356205;22;20176;-92
2023/05/06 02:32:38;;;;;;;1.38;0.73;;;;;;;;;;6338018;22;20184;-93
2023/05/06 02:35:45;;;;;;;0.50;0.50;;;;;;;;;;6356986;22;20207;-93
2023/05/06 02:38:50;;;;;;;1.27;1.13;;;;;;;;;;6339002;22;20171;-93
2023/05/06 02:41:57;;;;;;;0.32;0.32;;;;;;;;;;6338019;22;20192;-90
2023/05/06 02:45:07;;;;;;;0.77;0.77;;;;;;;;;;6336521;22;20202;-92
2023/05/06 02:48:13;;;;;;;0.50;0.50;;;;;;;;;;6337857;22;20152;-93
2023/05/06 02:51:18;;;;;;;0.50;0.50;;;;;;;;;;6337903;22;20148;-93
2023/05/06 02:54:26;;;;;;;1.35;1.13;;;;;;;;;;6338032;22;20188;-93
2023/05/06 02:57:32;;;;;;;0.43;0.43;;;;;;;;;;6355453;22;20164;-92
2023/05/06 03:00:37;;;;;;;0.80;0.43;;;;;;;;;;6356188;22;20168;-92
2023/05/06 03:03:42;;;;;;;0.70;0.70;;;;;;;;;;6355904;22;20207;-93
2023/05/06 03:06:48;;;;;;;5.47;0.70;;;;;;;;;;6336496;22;20201;-92
2023/05/06 03:09:53;;;;;;;0.50;0.50;;;;;;;;;;6355140;22;20156;-92
2023/05/06 03:13:00;;;;;;;0.40;0.40;;;;;;;;;;6356873;22;20164;-92
2023/05/06 03:16:13;;;;;;;0.88;0.77;;;;;;;;;;6356209;22;20238;-92
2023/05/06 03:19:21;;;;;;;0.60;0.60;;;;;;;;;;6356358;22;20268;-91
2023/05/06 03:22:27;;;;;;;0.88;0.60;;;;;;;;;;6357139;22;20152;-93
2023/05/06 03:25:32;;;;;;;0.88;0.80;;;;;;;;;;6356265;22;20168;-92
2023/05/06 03:28:40;;;;;;;1.55;0.60;;;;;;;;;;6338201;22;20179;-93
2023/05/06 03:31:45;;;;;;;0.50;0.50;;;;;;;;;;6356356;22;20214;-94
2023/05/06 03:34:51;;;;;;;1.85;0.80;;;;;;;;;;6337315;22;20192;-92
2023/05/06 03:38:00;;;;;;;0.30;0.30;;;;;;;;;;6355215;22;20180;-91
2023/05/06 03:41:12;;;;;;;1.10;0.88;;;;;;;;;;6356390;22;20187;-91
2023/05/06 03:44:29;;;;;;;0.85;0.73;;;;;;;;;;6336987;22;20244;-93
2023/05/06 03:47:39;;;;;;;1.25;0.95;;;;;;;;;;6337203;22;20169;-92
2023/05/06 03:50:46;;;;;;;0.90;0.57;;;;;;;;;;6354679;22;20161;-92
2023/05/06 03:53:52;;;;;;;0.47;0.47;;;;;;;;;;6336669;22;20180;-92
2023/05/06 03:56:58;;;;;;;0.60;0.60;;;;;;;;;;6357765;22;20168;-92
2023/05/06 04:00:05;;;;;;;2.72;0.82;;;;;;;;;;6338512;22;20148;-93
2023/05/06 04:03:15;;;;;;;1.90;0.98;;;;;;;;;;6356983;22;20235;-92
2023/05/06 04:06:26;;;;;;;1.25;0.73;;;;;;;;;;6337649;22;20165;-93
2023/05/06 04:09:33;;;;;;;1.38;0.70;;;;;;;;;;6355456;22;20210;-95
2023/05/06 04:12:40;;;;;;;0.45;0.45;;;;;;;;;;6354897;22;20236;-91
2023/05/06 04:15:46;;;;;;;0.30;0.30;;;;;;;;;;6353065;22;20187;-92
2023/05/06 04:18:57;;;;;;;1.52;0.88;;;;;;;;;;6353122;22;20169;-91
2023/05/06 04:22:04;;;;;;;0.47;0.47;;;;;;;;;;6353902;22;20229;-93
2023/05/06 04:25:10;;;;;;;0.30;0.30;;;;;;;;;;6354928;22;20172;-93
2023/05/06 04:28:17;;;;;;;0.90;0.88;;;;;;;;;;6353792;22;20231;-93
2023/05/06 04:31:28;;;;;;;0.60;0.60;;;;;;;;;;6353414;22;20234;-93
2023/05/06 04:34:36;;;;;;;0.50;0.50;;;;;;;;;;6354466;22;20187;-91
2023/05/06 04:37:45;;;;;;;0.70;0.70;;;;;;;;;;6355948;22;20169;-93
2023/05/06 04:41:00;;;;;;;0.57;0.57;;;;;;;;;;6335779;22;20632;-93
2023/05/06 04:44:05;;;;;;;1.20;1.10;;;;;;;;;;6353977;22;20164;-93
2023/05/06 04:47:11;;;;;;;0.40;0.40;;;;;;;;;;6354403;22;20211;-92
2023/05/06 04:50:19;;;;;;;0.98;0.88;;;;;;;;;;6355201;22;20181;-92
2023/05/06 04:53:28;;;;;;;1.35;1.15;;;;;;;;;;6357523;22;20222;-93
2023/05/06 04:56:34;;;;;;;1.33;1.23;;;;;;;;;;6338687;22;20170;-91
2023/05/06 04:59:41;;;;;;;1.20;1.10;;;;;;;;;;6339209;22;20594;-92
2023/05/06 05:02:46;;;;;;;0.65;0.60;;;;;;;;;;6337948;22;20215;-93
2023/05/06 05:05:54;;;;;;;0.77;0.77;;;;;;;;;;6355694;22;20156;-93
2023/05/06 05:09:02;;;;;;;5.25;1.70;;;;;;;;;;6356207;22;20165;-92
2023/05/06 14:05:27;;;;;;;4.10;1.75;;;;;;;;;;6296930;22;20170;-91
2023/05/06 14:08:33;;;;;;;5.25;2.00;;;;;;;;;;6280793;22;20177;-92
2023/05/06 14:11:40;;;;;;;2.97;1.75;;;;;;;;;;6278143;22;20256;-91
2023/05/06 14:14:46;;;;;;;5.18;2.00;;;;;;;;;;6294228;22;20514;-93
2023/05/06 14:17:52;;;;;;;4.70;1.92;;;;;;;;;;6277915;22;20173;-93
2023/05/06 14:21:00;;;;;;;5.13;2.83;;;;;;;;;;6277281;22;20173;-93
2023/05/06 14:24:05;;;;;;;2.55;1.55;;;;;;;;;;6292631;22;20470;-94
2023/05/06 14:27:10;;;;;;;2.42;1.30;;;;;;;;;;6295426;22;20181;-91
2023/05/06 14:33:36;;;;;;;2.20;1.48;;;;;;;;;;6294185;22;20170;-92
2023/05/06 14:36:43;;;;;;;3.20;1.77;;;;;;;;;;6279053;22;20181;-93
2023/05/06 14:39:49;;;;;;;2.35;1.50;;;;;;;;;;6296296;22;20250;-92
2023/05/06 14:42:54;;;;;;;4.97;1.45;;;;;;;;;;6295543;22;20173;-93
2023/05/06 14:46:32;;;;;;;4.47;1.58;;;;;;;;;;6278947;22;20165;-92
2023/05/06 14:49:38;;;;;;;5.22;1.63;;;;;;;;;;6281129;22;20161;-92
2023/05/06 14:52:49;;;;;;;3.20;1.85;;;;;;;;;;6297208;22;20248;-93
2023/05/06 14:55:56;;;;;;;1.85;1.38;;;;;;;;;;6278162;22;20197;-94
2023/05/06 14:59:02;;;;;;;2.45;1.83;;;;;;;;;;6296154;22;20173;-94
2023/05/06 15:02:08;;;;;;;6.47;1.45;;;;;;;;;;6293894;22;20185;-94
2023/05/06 15:05:18;;;;;;;5.35;1.98;;;;;;;;;;6311146;22;20222;-95
2023/05/06 15:08:28;;;;;;;1.95;1.40;;;;;;;;;;6296404;22;20153;-93
2023/05/06 15:11:33;;;;;;;2.33;1.40;;;;;;;;;;6313336;22;20178;-93
2023/05/06 15:14:39;;;;;;;4.60;1.55;;;;;;;;;;6314426;22;20161;-93
2023/05/06 15:17:44;;;;;;;3.10;1.60;;;;;;;;;;6313297;22;20177;-93
2023/05/06 15:24:13;;;;;;;5.18;1.83;;;;;;;;;;6314408;22;20188;-94
2023/05/06 15:30:39;;;;;;;2.20;1.17;;;;;;;;;;6297588;22;20181;-92
2023/05/06 15:37:11;;;;;;;5.50;2.15;;;;;;;;;;6316353;22;20220;-91
2023/05/06 15:40:29;;;;;;;2.42;1.10;;;;;;;;;;6295413;22;20178;-91
2023/05/06 15:52:14;;;;;;;1.98;1.10;;;;;;;;;;6295079;22;20205;-92
2023/05/06 15:55:19;;;;;;;6.25;1.92;;;;;;;;;;6310973;22;20189;-91
2023/05/06 15:58:26;;;;;;;5.65;1.50;;;;;;;;;;6294640;22;20170;-91
2023/05/06 16:01:32;;;;;;;5.85;2.50;;;;;;;;;;6295783;22;20178;-91
2023/05/06 16:04:37;;;;;;;7.72;1.70;;;;;;;;;;6311563;22;20280;-91
2023/05/06 16:07:42;;;;;;;6.53;3.45;;;;;;;;;;6312114;22;20218;-91
2023/05/06 16:10:48;;;;;;;7.47;3.10;;;;;;;;;;6295464;22;20193;-92
2023/05/06 16:13:56;;;;;;;2.90;1.85;;;;;;;;;;6294758;22;20166;-92
2023/05/06 16:21:24;;;;;;;6.47;1.58;;;;;;;;;;6297227;22;20148;-93
2023/05/06 16:24:37;;;;;;;8.90;1.88;;;;;;;;;;6295158;22;20173;-93
2023/05/06 16:27:43;;;;;;;5.53;1.50;;;;;;;;;;6315022;22;20172;-95
2023/05/06 16:31:01;;;;;;;3.40;1.50;;;;;;;;;;6295401;22;20264;-94
2023/05/06 16:34:06;;;;;;;6.65;2.38;;;;;;;;;;6294400;22;20162;-93
2023/05/06 16:37:13;;;;;;;5.50;1.70;;;;;;;;;;6294401;22;20199;-95
2023/05/06 16:40:20;;;;;;;4.18;1.73;;;;;;;;;;6295562;22;20165;-92
2023/05/06 16:46:56;;;;;;;3.38;2.13;;;;;;;;;;6311602;22;20174;-95
2023/05/06 16:50:02;;;;;;;4.30;1.75;;;;;;;;;;6312593;22;20166;-92
2023/05/06 16:56:28;;;;;;;3.03;2.10;;;;;;;;;;6314787;22;20224;-93
2023/05/06 16:59:34;;;;;;;5.75;2.30;;;;;;;;;;6294211;22;20161;-92
2023/05/06 17:02:45;;;;;;;3.05;1.80;;;;;;;;;;6294807;22;20166;-92
2023/05/06 17:10:28;;;;;;;3.95;1.98;;;;;;;;;;6298528;22;20202;-91
2023/05/06 17:13:34;;;;;;;3.22;2.00;;;;;;;;;;6276616;22;20169;-93
2023/05/06 17:17:06;;;;;;;6.68;2.55;;;;;;;;;;6280145;22;20206;-92
2023/05/06 17:20:14;;;;;;;3.25;1.60;;;;;;;;;;6276522;22;20200;-94
2023/05/06 17:23:19;;;;;;;6.18;2.30;;;;;;;;;;6294441;22;20158;-93
2023/05/06 17:26:25;;;;;;;2.85;1.70;;;;;;;;;;6278634;22;20404;-94
2023/05/06 17:29:30;;;;;;;13.90;7.57;;;;;;;;;;6279445;22;20243;-95
2023/05/06 17:32:36;;;;;;;4.95;2.00;;;;;;;;;;6295943;22;20609;-91
2023/05/06 17:35:45;;;;;;;3.90;2.10;;;;;;;;;;6276868;22;20193;-91
2023/05/06 17:38:53;;;;;;;5.00;2.17;;;;;;;;;;6295749;22;20500;-89
2023/05/06 17:42:00;;;;;;;7.00;1.70;;;;;;;;;;6295606;22;20165;-95
2023/05/06 17:48:38;;;;;;;5.13;3.10;;;;;;;;;;6279074;22;20281;-90
2023/05/06 17:51:46;;;;;;;10.30;4.10;;;;;;;;;;6278652;22;20170;-91
2023/05/06 17:54:56;;;;;;;9.98;2.33;;;;;;;;;;6296985;22;20182;-93
2023/05/06 17:58:02;;;;;;;4.90;2.42;;;;;;;;;;6297231;22;20216;-91
2023/05/06 18:01:08;;;;;;;9.27;4.07;;;;;;;;;;6297516;22;20166;-93
2023/05/06 18:04:13;;;;;;;6.00;3.70;;;;;;;;;;6304904;22;20212;-95
2023/05/06 18:07:21;;;;;;;6.97;3.78;;;;;;;;;;6293954;22;20181;-92
2023/05/06 18:10:26;;;;;;;11.77;3.90;;;;;;;;;;6294357;22;20153;-91
2023/05/06 18:13:33;;;;;;;8.30;3.72;;;;;;;;;;6294190;22;20166;-93
2023/05/06 18:20:58;;;;;;;6.63;3.03;;;;;;;;;;6294231;22;20178;-93
2023/05/06 18:24:06;;;;;;;11.35;5.70;;;;;;;;;;6311625;22;20186;-94
2023/05/06 18:27:11;;;;;;;10.20;3.58;;;;;;;;;;6293514;22;20166;-93
2023/05/06 18:30:18;;;;;;;6.75;3.15;;;;;;;;;;6294460;22;20214;-92
2023/05/06 18:33:24;;;;;;;8.77;3.60;;;;;;;;;;6293963;22;20169;-91
2023/05/06 22:42:54;;;;;;;13.30;4.50;;;;;;;;;;6338645;22;20694;-91
2023/05/06 22:46:35;;;;;;;8.93;4.45;;;;;;;;;;6355218;22;20175;-95
2023/05/06 22:49:40;;;;;;;10.43;4.90;;;;;;;;;;6353148;22;20179;-93
2023/05/06 22:52:46;;;;;;;15.20;4.35;;;;;;;;;;6352654;22;20195;-92
2023/05/06 22:55:51;;;;;;;8.05;4.47;;;;;;;;;;6350931;22;20587;-93
2023/05/06 22:58:57;;;;;;;13.23;4.65;;;;;;;;;;6352746;22;20167;-92
2023/05/06 23:02:02;;;;;;;8.32;4.47;;;;;;;;;;6335461;22;20205;-93
2023/05/06 23:05:08;;;;;;;9.02;4.65;;;;;;;;;;6352578;22;20215;-91
2023/05/06 23:08:13;;;;;;;9.32;4.72;;;;;;;;;;6351683;22;20242;-94
2023/05/06 23:11:19;;;;;;;10.98;4.70;;;;;;;;;;6355170;22;20616;-93
2023/05/06 23:14:26;;;;;;;17.05;5.75;;;;;;;;;;6337367;22;20180;-92
2023/05/06 23:17:56;;;;;;;13.45;5.70;;;;;;;;;;6338645;22;20188;-91
2023/05/06 23:21:02;;;;;;;9.68;5.43;;;;;;;;;;6355524;22;20164;-91
2023/05/06 23:24:08;;;;;;;9.38;4.72;;;;;;;;;;6356598;22;20207;-92
2023/05/06 23:27:14;;;;;;;8.93;5.68;;;;;;;;;;6336049;22;20168;-92
2023/05/06 23:30:21;;;;;;;11.55;5.55;;;;;;;;;;6353729;22;20148;-92
2023/05/06 23:33:26;;;;;;;15.35;5.47;;;;;;;;;;6355791;22;20199;-92
2023/05/06 23:36:31;;;;;;;11.30;5.70;;;;;;;;;;6336914;22;20241;-93
2023/05/06 23:39:37;;;;;;;17.10;5.50;;;;;;;;;;6355592;22;20191;-92
2023/05/06 23:42:42;;;;;;;9.38;5.75;;;;;;;;;;6355220;22;20180;-93
2023/05/06 23:49:39;;;;;;;10.75;5.75;;;;;;;;;;6337609;22;20178;-93
2023/05/06 23:52:45;;;;;;;11.20;5.18;;;;;;;;;;6355835;22;20165;-92
2023/05/06 23:55:54;;;;;;;11.38;5.40;;;;;;;;;;6356412;22;20163;-91
2023/05/06 23:58:59;;;;;;;9.18;5.70;;;;;;;;;;6355150;22;20172;-95
